createdAt,value
2018-06-05T00:01:24.619Z,63.00
2018-06-05T00:03:55.057Z,65.50
2018-06-05T00:06:25.630Z,64.43
2018-06-05T00:08:55.711Z,62.00
2018-06-05T00:11:25.754Z,64.03
2018-06-05T00:13:56.441Z,63.27
2018-06-05T00:16:26.513Z,62.57
2018-06-05T00:18:57.283Z,61.23
2018-06-05T00:21:28.685Z,60.93
2018-06-05T00:23:58.857Z,62.77
2018-06-05T00:26:29.531Z,60.60
2018-06-05T00:29:02.449Z,62.03
2018-06-05T00:31:33.246Z,60.63
2018-06-05T00:34:03.736Z,62.13
2018-06-05T00:36:33.857Z,63.40
2018-06-05T00:39:04.502Z,64.80
2018-06-05T00:41:35.983Z,62.03
2018-06-05T00:44:06.556Z,64.77
2018-06-05T00:46:36.357Z,64.10
2018-06-05T00:49:06.898Z,63.53
2018-06-05T00:51:53.470Z,64.20
2018-06-05T00:54:24.088Z,63.30
2018-06-05T00:56:55.612Z,65.13
2018-06-05T00:59:25.969Z,66.33
2018-06-05T01:01:56.058Z,65.73
2018-06-05T01:04:27.484Z,64.60
2018-06-05T01:06:58.104Z,62.40
2018-06-05T01:09:28.266Z,64.37
2018-06-05T01:11:59.123Z,66.33
2018-06-05T01:14:29.558Z,62.33
2018-06-05T01:16:59.644Z,66.30
2018-06-05T01:19:29.890Z,65.03
2018-06-05T01:22:00.813Z,67.13
2018-06-05T01:24:30.930Z,68.93
2018-06-05T01:27:01.042Z,68.43
2018-06-05T01:29:31.261Z,65.57
2018-06-05T01:32:01.597Z,66.07
2018-06-05T01:34:31.760Z,64.90
2018-06-05T01:37:03.276Z,67.23
2018-06-05T01:39:35.489Z,64.87
2018-06-05T01:42:06.763Z,65.17
2018-06-05T01:44:36.929Z,65.03
2018-06-05T01:47:08.141Z,62.83
2018-06-05T01:49:41.685Z,60.07
2018-06-05T01:52:11.961Z,63.30
2018-06-05T01:54:43.396Z,64.93
2018-06-05T01:57:13.620Z,62.90
2018-06-05T01:59:43.891Z,65.03
2018-06-05T02:02:14.373Z,65.47
2018-06-05T02:04:44.616Z,63.20
2018-06-05T02:07:15.019Z,64.47
2018-06-05T02:09:46.421Z,61.10
2018-06-05T02:12:16.617Z,64.00
2018-06-05T02:14:46.697Z,61.77
2018-06-05T02:17:17.373Z,60.53
2018-06-05T02:19:48.236Z,60.53
2018-06-05T02:22:18.259Z,59.33
2018-06-05T02:24:48.702Z,61.97
2018-06-05T02:27:19.207Z,60.30
2018-06-05T02:29:49.301Z,61.37
2018-06-05T02:32:19.389Z,62.03
2018-06-05T02:34:49.769Z,62.90
2018-06-05T02:37:19.863Z,60.97
2018-06-05T02:39:50.324Z,59.37
2018-06-05T02:42:21.324Z,59.73
2018-06-05T02:44:51.530Z,61.93
2018-06-05T02:47:24.487Z,62.67
2018-06-05T02:49:54.889Z,61.50
2018-06-05T02:52:25.783Z,60.40
2018-06-05T02:54:56.126Z,62.37
2018-06-05T02:57:27.217Z,59.87
2018-06-05T02:59:57.362Z,61.57
2018-06-05T03:02:29.045Z,61.30
2018-06-05T03:04:59.711Z,60.87
2018-06-05T03:07:29.998Z,61.37
2018-06-05T03:10:00.094Z,63.53
2018-06-05T03:12:30.400Z,61.63
2018-06-05T03:15:01.110Z,62.43
2018-06-05T03:17:31.816Z,61.30
2018-06-05T03:20:02.237Z,59.37
2018-06-05T03:22:32.673Z,60.00
2018-06-05T03:25:02.916Z,61.27
2018-06-05T03:27:32.910Z,61.73
2018-06-05T03:30:03.143Z,59.87
2018-06-05T03:32:33.440Z,60.70
2018-06-05T03:35:04.724Z,60.77
2018-06-05T03:37:35.125Z,59.70
2018-06-05T03:40:05.382Z,59.77
2018-06-05T03:42:36.326Z,59.30
2018-06-05T03:45:06.923Z,60.90
2018-06-05T03:47:37.701Z,60.23
2018-06-05T03:50:08.444Z,58.97
2018-06-05T03:52:38.561Z,60.50
2018-06-05T03:55:09.117Z,62.13
2018-06-05T03:57:40.001Z,59.90
2018-06-05T04:00:11.118Z,63.27
2018-06-05T04:02:41.217Z,63.50
2018-06-05T04:05:11.491Z,64.43
2018-06-05T04:07:41.734Z,60.30
2018-06-05T04:10:13.008Z,62.67
2018-06-05T04:12:43.593Z,61.57
2018-06-05T04:15:14.430Z,59.80
2018-06-05T04:17:44.521Z,61.73
2018-06-05T04:20:14.744Z,63.47
2018-06-05T04:22:45.813Z,58.17
2018-06-05T04:25:16.081Z,59.93
2018-06-05T04:27:46.589Z,58.63
2018-06-05T04:30:17.917Z,61.97
2018-06-05T04:32:48.804Z,62.13
2018-06-05T04:35:19.130Z,60.60
2018-06-05T04:37:49.322Z,62.13
2018-06-05T04:40:19.776Z,61.07
2018-06-05T04:42:49.849Z,60.83
2018-06-05T04:45:20.833Z,61.53
2018-06-05T04:47:51.076Z,65.07
2018-06-05T04:50:21.219Z,61.53
2018-06-05T04:52:51.507Z,61.57
2018-06-05T04:55:21.845Z,64.63
2018-06-05T04:57:52.211Z,63.70
2018-06-05T05:00:23.454Z,64.57
2018-06-05T05:02:54.046Z,64.17
2018-06-05T05:05:24.737Z,63.83
2018-06-05T05:07:54.880Z,64.27
2018-06-05T05:10:24.968Z,62.23
2018-06-05T05:12:55.402Z,65.47
2018-06-05T05:15:25.565Z,63.47
2018-06-05T05:17:55.712Z,62.63
2018-06-05T05:20:25.736Z,65.97
2018-06-05T05:22:56.364Z,62.67
2018-06-05T05:25:26.897Z,63.57
2018-06-05T05:27:58.073Z,66.73
2018-06-05T05:30:29.051Z,65.27
2018-06-05T05:33:00.452Z,65.10
2018-06-05T05:35:30.626Z,66.43
2018-06-05T05:38:00.810Z,66.37
2018-06-05T05:40:31.195Z,65.67
2018-06-05T05:43:01.417Z,65.87
2018-06-05T05:45:32.407Z,69.53
2018-06-05T05:48:02.676Z,69.37
2018-06-05T05:50:33.083Z,65.37
2018-06-05T05:53:03.382Z,64.57
2018-06-05T05:55:33.634Z,65.70
2018-06-05T05:58:04.697Z,70.03
2018-06-05T06:00:35.596Z,65.17
2018-06-05T06:03:05.941Z,67.97
2018-06-05T06:05:35.920Z,65.73
2018-06-05T06:08:06.585Z,66.53
2018-06-05T06:10:38.135Z,65.73
2018-06-05T06:13:08.198Z,65.30
2018-06-05T06:15:38.931Z,71.33
2018-06-05T06:18:09.223Z,67.07
2018-06-05T06:20:39.465Z,69.97
2018-06-05T06:23:10.157Z,70.67
2018-06-05T06:25:39.992Z,70.27
2018-06-05T06:28:10.694Z,71.00
2018-06-05T06:30:41.709Z,67.60
2018-06-05T06:33:12.014Z,71.10
2018-06-05T06:35:42.413Z,70.83
2018-06-05T06:38:13.045Z,72.30
2018-06-05T06:40:43.194Z,71.23
2018-06-05T06:43:21.477Z,67.50
2018-06-05T06:45:51.963Z,68.47
2018-06-05T06:48:22.413Z,68.67
2018-06-05T06:50:52.630Z,70.37
2018-06-05T06:53:24.725Z,73.20
2018-06-05T06:55:57.221Z,72.27
2018-06-05T06:58:27.560Z,71.77
2018-06-05T07:00:59.790Z,130.37
2018-06-05T07:03:31.500Z,72.53
2018-06-05T07:06:01.836Z,71.33
2018-06-05T07:08:32.452Z,72.37
2018-06-05T07:11:03.721Z,73.37
2018-06-05T07:13:36.538Z,75.53
2018-06-05T07:16:06.989Z,72.20
2018-06-05T07:18:40.042Z,70.53
2018-06-05T07:21:11.169Z,72.57
2018-06-05T07:23:41.783Z,68.97
2018-06-05T07:26:13.553Z,70.97
2018-06-05T07:28:43.964Z,71.53
2018-06-05T07:31:15.118Z,68.40
2018-06-05T07:33:47.039Z,73.63
2018-06-05T07:36:17.224Z,69.93
2018-06-05T07:38:48.246Z,70.70
2018-06-05T07:41:17.917Z,68.40
2018-06-05T07:43:49.008Z,70.10
2018-06-05T07:46:19.353Z,71.80
2018-06-05T07:48:49.555Z,69.73
2018-06-05T07:51:20.521Z,70.97
2018-06-05T07:53:51.716Z,71.37
2018-06-05T07:56:23.096Z,68.33
2018-06-05T07:58:54.106Z,69.43
2018-06-05T08:01:24.529Z,69.97
2018-06-05T08:03:54.675Z,72.13
2018-06-05T08:06:25.671Z,71.00
2018-06-05T08:08:55.827Z,68.87
2018-06-05T08:11:26.576Z,68.23
2018-06-05T08:13:56.941Z,71.43
2018-06-05T08:16:27.204Z,73.50
2018-06-05T08:18:57.679Z,71.70
2018-06-05T08:21:27.951Z,74.43
2018-06-05T08:23:58.341Z,76.27
2018-06-05T08:26:56.538Z,69.23
2018-06-05T08:29:27.368Z,72.67
2018-06-05T08:31:58.422Z,72.63
2018-06-05T08:34:30.899Z,74.37
2018-06-05T08:37:00.988Z,70.90
2018-06-05T08:39:31.836Z,71.90
2018-06-05T08:42:01.901Z,69.50
2018-06-05T08:44:33.278Z,70.70
2018-06-05T08:47:05.096Z,73.37
2018-06-05T08:49:37.265Z,72.53
2018-06-05T08:52:08.642Z,71.43
2018-06-05T08:54:39.906Z,78.27
2018-06-05T08:57:10.226Z,77.30
2018-06-05T08:59:40.318Z,77.17
2018-06-05T09:02:11.494Z,71.87
2018-06-05T09:04:41.745Z,70.23
2018-06-05T09:07:11.977Z,72.13
2018-06-05T09:09:42.131Z,73.93
2018-06-05T09:12:14.181Z,69.53
2018-06-05T09:14:45.259Z,73.13
2018-06-05T09:17:15.507Z,70.50
2018-06-05T09:19:46.398Z,70.10
2018-06-05T09:22:17.139Z,71.10
2018-06-05T09:24:47.539Z,72.47
2018-06-05T09:27:18.122Z,70.20
2018-06-05T09:29:49.179Z,69.90
2018-06-05T09:32:20.324Z,69.90
2018-06-05T09:34:51.347Z,69.00
2018-06-05T09:37:21.568Z,72.43
2018-06-05T09:39:51.832Z,73.07
2018-06-05T09:42:22.010Z,74.03
2018-06-05T09:44:52.355Z,72.77
2018-06-05T09:47:23.140Z,70.80
2018-06-05T09:49:54.232Z,70.77
2018-06-05T09:52:24.490Z,71.93
2018-06-05T09:54:56.867Z,72.60
2018-06-05T09:57:28.116Z,72.63
2018-06-05T09:59:59.396Z,72.17
2018-06-05T10:02:29.828Z,69.83
2018-06-05T10:05:00.474Z,70.60
2018-06-05T10:07:30.684Z,72.90
2018-06-05T10:10:01.111Z,70.67
2018-06-05T10:12:31.328Z,70.63
2018-06-05T10:15:01.581Z,75.43
2018-06-05T10:17:32.242Z,71.23
2018-06-05T10:20:02.502Z,71.23
2018-06-05T10:22:33.230Z,72.40
2018-06-05T10:25:03.733Z,70.17
2018-06-05T10:27:34.131Z,72.57
2018-06-05T10:30:06.468Z,72.83
2018-06-05T10:32:37.213Z,70.10
2018-06-05T10:35:08.345Z,72.33
2018-06-05T10:37:40.051Z,72.47
2018-06-05T10:40:10.650Z,70.33
2018-06-05T10:42:42.084Z,71.67
2018-06-05T10:45:13.452Z,71.23
2018-06-05T10:47:43.559Z,74.10
2018-06-05T10:50:13.691Z,74.73
2018-06-05T10:52:44.250Z,74.77
2018-06-05T10:55:15.290Z,73.20
2018-06-05T10:57:45.370Z,75.33
2018-06-05T11:00:16.615Z,74.47
2018-06-05T11:02:48.312Z,72.50
2018-06-05T11:05:19.670Z,73.20
2018-06-05T11:07:49.940Z,73.23
2018-06-05T11:10:20.676Z,72.40
2018-06-05T11:12:51.296Z,73.30
2018-06-05T11:15:22.608Z,72.47
2018-06-05T11:17:53.330Z,74.53
2018-06-05T11:20:23.580Z,73.07
2018-06-05T11:22:53.749Z,73.77
2018-06-05T11:25:24.597Z,78.27
2018-06-05T11:27:54.923Z,73.80
2018-06-05T11:30:25.840Z,76.27
2018-06-05T11:32:56.409Z,73.70
2018-06-05T11:35:27.802Z,78.37
2018-06-05T11:37:59.079Z,73.80
2018-06-05T11:40:30.340Z,74.60
2018-06-05T11:43:01.291Z,75.07
2018-06-05T11:45:31.598Z,79.80
2018-06-05T11:48:01.949Z,75.07
2018-06-05T11:50:33.396Z,76.03
2018-06-05T11:53:03.507Z,77.60
2018-06-05T11:55:34.707Z,81.40
2018-06-05T11:58:05.694Z,77.63
2018-06-05T12:00:37.177Z,79.90
2018-06-05T12:03:08.435Z,79.10
2018-06-05T12:05:39.972Z,77.37
2018-06-05T12:08:10.202Z,79.77
2018-06-05T12:10:40.469Z,79.83
2018-06-05T12:13:11.560Z,76.23
2018-06-05T12:15:41.959Z,81.67
2018-06-05T12:18:12.125Z,83.33
2018-06-05T12:20:43.221Z,80.83
2018-06-05T12:23:13.655Z,78.10
2018-06-05T12:25:44.017Z,77.90
2018-06-05T12:28:15.529Z,79.43
2018-06-05T12:30:48.669Z,73.90
2018-06-05T12:33:19.005Z,75.07
2018-06-05T12:35:49.845Z,81.13
2018-06-05T12:38:20.270Z,78.17
2018-06-05T12:40:50.621Z,80.77
2018-06-05T12:43:21.201Z,80.87
2018-06-05T12:45:51.024Z,79.67
2018-06-05T12:48:21.194Z,76.90
2018-06-05T12:50:51.674Z,76.13
2018-06-05T12:53:22.167Z,78.73
2018-06-05T12:55:53.409Z,75.17
2018-06-05T12:58:24.522Z,78.60
2018-06-05T13:00:54.825Z,80.90
2018-06-05T13:03:26.953Z,76.47
2018-06-05T13:05:57.504Z,81.97
2018-06-05T13:08:28.553Z,75.93
2018-06-05T13:10:58.773Z,76.60
2018-06-05T13:13:30.182Z,78.23
2018-06-05T13:16:02.494Z,77.97
2018-06-05T13:18:33.319Z,79.60
2018-06-05T13:21:04.004Z,78.20
2018-06-05T13:23:34.703Z,77.50
2018-06-05T13:26:05.070Z,76.63
2018-06-05T13:28:35.477Z,78.00
2018-06-05T13:31:06.221Z,77.50
2018-06-05T13:33:36.781Z,76.47
2018-06-05T13:36:07.346Z,76.47
2018-06-05T13:38:38.287Z,78.63
2018-06-05T13:41:08.627Z,77.43
2018-06-05T13:43:39.153Z,78.87
2018-06-05T13:46:09.283Z,77.70
2018-06-05T13:48:40.111Z,77.00
2018-06-05T13:51:10.624Z,76.10
2018-06-05T13:53:41.732Z,76.37
2018-06-05T13:56:13.028Z,76.10
2018-06-05T13:58:44.174Z,73.97
2018-06-05T14:01:14.348Z,77.97
2018-06-05T14:03:44.966Z,141.23
2018-06-05T14:06:15.400Z,89.77
2018-06-05T14:08:45.430Z,86.07
2018-06-05T14:11:15.531Z,90.90
2018-06-05T14:13:47.006Z,86.90
2018-06-05T14:16:16.973Z,88.47
2018-06-05T14:18:47.155Z,93.33
2018-06-05T14:21:18.812Z,94.47
2018-06-05T14:23:49.355Z,87.47
2018-06-05T14:26:20.113Z,86.77
2018-06-05T14:28:50.475Z,82.37
2018-06-05T14:31:20.575Z,86.97
2018-06-05T14:33:50.902Z,86.67
2018-06-05T14:36:22.437Z,84.10
2018-06-05T14:38:52.630Z,85.73
2018-06-05T14:41:23.225Z,82.53
2018-06-05T14:43:55.106Z,83.03
2018-06-05T14:46:25.579Z,84.07
2018-06-05T14:48:56.083Z,84.47
2018-06-05T14:51:26.307Z,82.23
2018-06-05T14:53:57.323Z,89.97
2018-06-05T14:56:27.428Z,86.37
2018-06-05T14:58:58.379Z,86.93
2018-06-05T15:01:28.169Z,100.13
2018-06-05T15:03:58.470Z,88.03
2018-06-05T15:06:29.577Z,89.30
2018-06-05T15:08:59.706Z,88.63
2018-06-05T15:11:31.003Z,86.10
2018-06-05T15:14:01.129Z,88.83
2018-06-05T15:16:31.889Z,85.53
2018-06-05T15:19:02.256Z,85.60
2018-06-05T15:21:33.795Z,85.92
2018-06-05T15:24:04.141Z,86.57
2018-06-05T15:26:34.586Z,88.65
2018-06-05T15:29:05.325Z,88.43
2018-06-05T15:31:35.690Z,89.77
2018-06-05T15:34:06.139Z,85.13
2018-06-05T15:36:36.286Z,88.67
2018-06-05T15:39:09.541Z,85.77
2018-06-05T15:41:39.794Z,89.10
2018-06-05T15:44:09.946Z,90.20
2018-06-05T15:46:40.259Z,87.53
2018-06-05T15:49:10.627Z,84.47
2018-06-05T15:51:40.856Z,85.93
2018-06-05T15:54:11.853Z,84.63
2018-06-05T15:56:42.599Z,82.60
2018-06-05T15:59:13.054Z,84.50
2018-06-05T16:01:43.570Z,83.37
2018-06-05T16:04:14.059Z,83.77
2018-06-05T16:06:44.411Z,85.13
2018-06-05T16:09:14.888Z,83.70
2018-06-05T16:11:45.117Z,85.33
2018-06-05T16:14:15.440Z,83.93
2018-06-05T16:16:45.821Z,82.63
2018-06-05T16:19:16.085Z,84.03
2018-06-05T16:21:46.363Z,82.43
2018-06-05T16:24:16.608Z,84.70
2018-06-05T16:26:46.857Z,84.97
2018-06-05T16:29:17.111Z,88.33
2018-06-05T16:31:47.270Z,87.50
2018-06-05T16:34:17.535Z,85.00
2018-06-05T16:36:47.604Z,80.17
2018-06-05T16:39:18.834Z,81.43
2018-06-05T16:41:48.977Z,86.23
2018-06-05T16:44:20.332Z,85.20
2018-06-05T16:46:50.644Z,88.50
2018-06-05T16:49:21.265Z,97.93
2018-06-05T16:51:51.536Z,87.40
2018-06-05T16:54:21.766Z,85.47
2018-06-05T16:56:52.439Z,88.83
2018-06-05T16:59:22.956Z,89.07
2018-06-05T17:01:53.378Z,83.57
2018-06-05T17:04:23.613Z,88.30
2018-06-05T17:06:53.690Z,88.37
2018-06-05T17:09:24.316Z,88.90
2018-06-05T17:11:54.567Z,84.30
2018-06-05T17:14:24.902Z,90.13
2018-06-05T17:16:55.205Z,84.70
2018-06-05T17:19:25.556Z,84.03
2018-06-05T17:21:55.817Z,82.27
2018-06-05T17:24:25.846Z,83.23
2018-06-05T17:26:56.598Z,81.37
2018-06-05T17:29:26.601Z,80.17
2018-06-05T17:31:57.207Z,82.73
2018-06-05T17:34:27.591Z,84.23
2018-06-05T17:36:57.864Z,82.57
2018-06-05T17:39:28.324Z,80.00
2018-06-05T17:41:58.554Z,84.80
2018-06-05T17:44:28.944Z,85.60
2018-06-05T17:46:59.786Z,85.70
2018-06-05T17:49:30.017Z,80.73
2018-06-05T17:52:00.251Z,82.03
2018-06-05T17:54:30.371Z,82.93
2018-06-05T17:57:01.306Z,83.13
2018-06-05T17:59:31.398Z,83.07
2018-06-05T18:02:01.662Z,82.77
2018-06-05T18:04:32.005Z,88.63
2018-06-05T18:07:02.272Z,86.83
2018-06-05T18:09:33.752Z,79.97
2018-06-05T18:12:04.080Z,82.43
2018-06-05T18:14:35.656Z,87.53
2018-06-05T18:17:09.817Z,82.57
2018-06-05T18:19:40.388Z,78.53
2018-06-05T18:22:10.534Z,82.03
2018-06-05T18:24:41.701Z,79.97
2018-06-05T18:27:12.885Z,77.33
2018-06-05T18:29:46.251Z,79.47
2018-06-05T18:32:16.198Z,78.40
2018-06-05T18:34:47.201Z,84.53
2018-06-05T18:37:18.321Z,77.53
2018-06-05T18:39:49.063Z,80.43
2018-06-05T18:42:19.518Z,77.20
2018-06-05T18:44:50.204Z,81.60
2018-06-05T18:47:20.618Z,83.07
2018-06-05T18:49:51.105Z,78.33
2018-06-05T18:52:21.266Z,87.63
2018-06-05T18:54:51.600Z,80.40
2018-06-05T18:57:21.872Z,79.73
2018-06-05T18:59:58.842Z,81.00
2018-06-05T19:02:29.001Z,79.17
2018-06-05T19:04:59.597Z,81.80
2018-06-05T19:07:30.136Z,82.30
2018-06-05T19:10:00.498Z,85.30
2018-06-05T19:12:30.741Z,83.10
2018-06-05T19:15:01.323Z,84.90
2018-06-05T19:17:31.449Z,82.67
2018-06-05T19:20:01.856Z,79.90
2018-06-05T19:22:31.934Z,81.93
2018-06-05T19:25:05.403Z,78.13
2018-06-05T19:27:35.738Z,84.00
2018-06-05T19:30:06.009Z,79.03
2018-06-05T19:32:36.182Z,80.37
2018-06-05T19:35:06.725Z,78.47
2018-06-05T19:37:38.395Z,79.23
2018-06-05T19:40:08.788Z,78.13
2018-06-05T19:42:38.874Z,78.63
2018-06-05T19:45:09.168Z,78.87
2018-06-05T19:47:39.350Z,86.17
2018-06-05T19:50:12.589Z,75.90
2018-06-05T19:52:42.854Z,79.37
2018-06-05T19:55:13.735Z,78.50
2018-06-05T19:57:44.587Z,77.60
2018-06-05T20:00:16.175Z,76.50
2018-06-05T20:02:47.488Z,77.33
2018-06-05T20:05:17.772Z,72.40
2018-06-05T20:07:49.081Z,74.40
2018-06-05T20:10:19.472Z,74.53
2018-06-05T20:12:49.862Z,72.03
2018-06-05T20:15:20.621Z,73.90
2018-06-05T20:17:51.813Z,75.83
2018-06-05T20:20:22.481Z,75.30
2018-06-05T20:22:53.294Z,75.27
2018-06-05T20:25:23.727Z,74.33
2018-06-05T20:27:53.967Z,71.37
2018-06-05T20:30:24.491Z,71.13
2018-06-05T20:32:57.255Z,71.23
2018-06-05T20:35:29.153Z,74.57
2018-06-05T20:38:01.334Z,75.57
2018-06-05T20:40:33.359Z,76.50
2018-06-05T20:43:05.663Z,71.87
2018-06-05T20:45:36.880Z,71.83
2018-06-05T20:48:07.520Z,72.57
2018-06-05T20:50:40.714Z,68.23
2018-06-05T20:53:11.456Z,70.40
2018-06-05T20:55:42.187Z,69.43
2018-06-05T20:58:13.526Z,74.63
2018-06-05T21:00:44.190Z,69.07
2018-06-05T21:03:14.320Z,68.70
2018-06-05T21:05:44.506Z,71.07
2018-06-05T21:08:14.718Z,75.63
2018-06-05T21:10:45.505Z,70.67
2018-06-05T21:13:15.749Z,70.53
2018-06-05T21:15:46.128Z,68.90
2018-06-05T21:18:16.419Z,67.37
2018-06-05T21:20:48.062Z,66.80
2018-06-05T21:23:18.195Z,66.67
2018-06-05T21:25:48.412Z,65.83
2018-06-05T21:28:18.963Z,64.07
2018-06-05T21:30:49.089Z,69.30
2018-06-05T21:33:19.854Z,64.07
2018-06-05T21:35:50.180Z,65.73
2018-06-05T21:38:20.731Z,64.30
2018-06-05T21:40:51.566Z,68.13
2018-06-05T21:43:22.447Z,70.47
2018-06-05T21:45:54.380Z,65.53
2018-06-05T21:48:24.899Z,65.13
2018-06-05T21:50:55.498Z,65.87
2018-06-05T21:53:26.994Z,66.67
2018-06-05T21:55:57.964Z,65.97
2018-06-05T21:58:28.412Z,62.60
2018-06-05T22:00:59.229Z,66.83
2018-06-05T22:03:29.870Z,63.50
2018-06-05T22:05:59.998Z,63.40
2018-06-05T22:08:30.916Z,59.87
2018-06-05T22:11:01.119Z,65.53
2018-06-05T22:13:31.593Z,66.57
2018-06-05T22:16:02.064Z,66.50
2018-06-05T22:18:33.848Z,64.33
2018-06-05T22:21:04.037Z,61.17
2018-06-05T22:23:35.757Z,65.40
2018-06-05T22:26:06.052Z,68.83
2018-06-05T22:28:36.314Z,67.17
2018-06-05T22:31:06.481Z,64.03
2018-06-05T22:33:37.197Z,70.77
2018-06-05T22:36:07.502Z,69.87
2018-06-05T22:38:37.970Z,68.00
2018-06-05T22:41:08.553Z,69.40
2018-06-05T22:43:40.269Z,69.23
2018-06-05T22:46:12.410Z,72.37
2018-06-05T22:48:43.445Z,71.67
2018-06-05T22:51:14.654Z,72.67
2018-06-05T22:53:45.568Z,70.50
2018-06-05T22:56:16.292Z,70.67
2018-06-05T22:58:46.757Z,69.10
2018-06-05T23:01:17.318Z,103.23
2018-06-05T23:03:47.880Z,66.97
2018-06-05T23:06:18.684Z,66.50
2018-06-05T23:08:49.637Z,65.90
2018-06-05T23:11:20.326Z,72.30
2018-06-05T23:13:50.413Z,73.97
2018-06-05T23:16:20.795Z,84.87
2018-06-05T23:18:51.869Z,84.17
2018-06-05T23:21:22.145Z,80.03
2018-06-05T23:23:52.559Z,77.67
2018-06-05T23:26:23.124Z,80.13
2018-06-05T23:28:53.358Z,72.50
2018-06-05T23:31:24.271Z,70.00
2018-06-05T23:33:56.580Z,65.57
2018-06-05T23:36:29.480Z,73.40
2018-06-05T23:38:59.800Z,66.20
2018-06-05T23:41:30.162Z,64.57
2018-06-05T23:44:00.475Z,65.47
2018-06-05T23:46:30.980Z,65.73
2018-06-05T23:49:03.370Z,66.33
2018-06-05T23:51:34.588Z,62.50
2018-06-05T23:54:05.433Z,65.33
2018-06-05T23:56:36.372Z,59.67
2018-06-05T23:59:08.049Z,64.20
